Weather at Chicago Midway International Airport

Public forecast

Using degrees Fahrenheit for public forecast. Weather courtesy of forecast.io.

Current aviation weather report (METAR) for Chicago Midway International Airport

Retrieved 2021/07/29 08:53 UTC (38 minutes ago):

KMDW 290853Z 24013KT 7SM -TSRA FEW024 SCT070CB OVC120 23/18 A2996 RMK AO2 PK WND 33047/0816 WSHFT 0814 LTG DSNT ALQDS RAB09 TSB08 SLP134 CONS LTGICCCCG OHD TS OHD MOV SE P0006 60006 T02280178 50011

Aviation forecast (TAF) for Chicago Midway International Airport

Retrieved 2021/07/29 06:22 UTC (3 hours ago):

TAF KMDW 290520Z 2906/3012 22011KT P6SM VCSH SCT025 BKN150 TEMPO 2908/2910 35030G45KT 2SM TSRA SCT009 BKN020CB FM291100 28012G20KT P6SM SCT020 BKN150 FM291400 33011G17KT P6SM BKN020 FM291700 04012G18KT P6SM SCT025 BKN035 FM300000 03011KT P6SM SCT035 SCT250